createdAt,value
2023-05-21T00:00:00.802Z,52.0084
2023-05-21T00:01:02.649Z,52.0045
2023-05-21T00:02:04.474Z,52.0078
2023-05-21T00:03:06.445Z,51.9897
2023-05-21T00:04:08.165Z,52.0007
2023-05-21T00:05:11.082Z,52.0182
2023-05-21T00:06:11.866Z,52.0216
2023-05-21T00:07:13.642Z,52.0126
2023-05-21T00:08:15.564Z,52.0238
2023-05-21T00:09:17.322Z,52.0275
2023-05-21T00:10:19.163Z,52.0336
2023-05-21T00:11:21.008Z,52.0434
2023-05-21T00:12:22.829Z,52.0376
2023-05-21T00:13:24.654Z,52.0355
2023-05-21T00:14:26.481Z,52.0236
2023-05-21T00:15:28.333Z,52.0164
2023-05-21T00:16:30.274Z,52.0109
2023-05-21T00:17:32.029Z,51.9940
2023-05-21T00:18:33.838Z,51.9961
2023-05-21T00:19:35.642Z,51.9859
2023-05-21T00:20:37.477Z,51.9858
2023-05-21T00:21:39.323Z,51.9975
2023-05-21T00:22:41.184Z,52.0013
2023-05-21T00:23:42.994Z,51.9878
2023-05-21T00:24:44.847Z,51.9713
2023-05-21T00:25:46.650Z,51.9557
2023-05-21T00:26:48.516Z,51.9371
2023-05-21T00:27:50.320Z,51.9178
2023-05-21T00:28:52.170Z,51.8875
2023-05-21T00:29:54.028Z,51.8799
2023-05-21T00:30:55.832Z,51.8642
2023-05-21T00:31:57.713Z,51.8436
2023-05-21T00:32:59.510Z,51.8107
2023-05-21T00:34:01.323Z,51.7760
2023-05-21T00:35:03.175Z,51.7556
2023-05-21T00:36:05.024Z,51.7289
2023-05-21T00:37:06.836Z,51.7075
2023-05-21T00:38:08.695Z,51.6880
2023-05-21T00:39:10.486Z,51.6882
2023-05-21T00:40:12.312Z,51.6804
2023-05-21T00:41:14.163Z,51.6554
2023-05-21T00:42:16.048Z,51.6404
2023-05-21T00:43:17.819Z,51.6469
2023-05-21T00:44:19.723Z,51.6524
2023-05-21T00:45:21.493Z,51.6391
2023-05-21T00:46:23.357Z,51.6364
2023-05-21T00:47:25.190Z,51.6413
2023-05-21T00:48:27.006Z,51.6380
2023-05-21T00:49:28.804Z,51.6255
2023-05-21T00:50:30.634Z,51.6051
2023-05-21T00:51:32.481Z,51.5774
2023-05-21T00:52:34.323Z,51.5565
2023-05-21T00:53:36.136Z,51.5501
2023-05-21T00:54:37.971Z,51.5519
2023-05-21T00:55:39.792Z,51.5509
2023-05-21T00:56:41.658Z,51.5359
2023-05-21T00:57:43.472Z,51.5376
2023-05-21T00:58:45.293Z,51.5209
2023-05-21T00:59:47.149Z,51.5043
2023-05-21T01:00:48.973Z,51.4938
2023-05-21T01:01:50.809Z,51.4911
2023-05-21T01:02:52.691Z,51.4967
2023-05-21T01:03:54.468Z,51.4942
2023-05-21T01:04:56.328Z,51.4902
2023-05-21T01:05:58.114Z,51.4737
2023-05-21T01:06:59.963Z,51.4627
2023-05-21T01:08:01.828Z,51.4573
2023-05-21T01:09:04.957Z,51.4451
2023-05-21T01:10:05.553Z,51.4434
2023-05-21T01:11:07.304Z,51.4563
2023-05-21T01:12:09.128Z,51.4588
2023-05-21T01:13:10.988Z,51.4536
2023-05-21T01:14:12.874Z,51.4477
2023-05-21T01:15:14.641Z,51.4560
2023-05-21T01:16:16.523Z,51.4506
2023-05-21T01:17:18.380Z,51.4608
2023-05-21T01:18:20.203Z,51.4662
2023-05-21T01:19:22.045Z,51.4733
2023-05-21T01:20:23.836Z,51.4765
2023-05-21T01:21:25.654Z,51.4624
2023-05-21T01:22:27.508Z,51.4509
2023-05-21T01:23:29.377Z,51.4425
2023-05-21T01:24:31.167Z,51.4391
2023-05-21T01:25:33.007Z,51.4296
2023-05-21T01:26:34.847Z,51.4255
2023-05-21T01:27:36.683Z,51.4097
2023-05-21T01:28:38.539Z,51.3966
2023-05-21T01:29:40.338Z,51.3870
2023-05-21T01:30:42.186Z,51.3820
2023-05-21T01:31:44.022Z,51.3800
2023-05-21T01:32:45.878Z,51.3802
2023-05-21T01:33:47.738Z,51.3742
2023-05-21T01:34:49.555Z,51.3661
2023-05-21T01:35:51.378Z,51.3680
2023-05-21T01:36:53.190Z,51.3516
2023-05-21T01:37:55.036Z,51.3497
2023-05-21T01:38:56.869Z,51.3526
2023-05-21T01:39:58.702Z,51.3444
2023-05-21T01:41:00.560Z,51.3227
2023-05-21T01:42:02.377Z,51.3115
2023-05-21T01:43:04.189Z,51.3183
2023-05-21T01:44:06.069Z,51.3249
2023-05-21T01:45:07.873Z,51.3212
2023-05-21T01:46:09.709Z,51.3218
2023-05-21T01:47:11.586Z,51.3160
2023-05-21T01:48:13.413Z,51.3150
2023-05-21T01:49:15.208Z,51.3165
2023-05-21T01:50:17.039Z,51.3148
2023-05-21T01:51:18.888Z,51.3075
2023-05-21T01:52:20.712Z,51.3033
2023-05-21T01:53:22.548Z,51.2963
2023-05-21T01:54:24.412Z,51.2940
2023-05-21T01:55:26.233Z,51.2876
2023-05-21T01:56:28.039Z,51.2849
2023-05-21T01:57:29.942Z,51.2896
2023-05-21T01:58:31.723Z,51.2799
2023-05-21T01:59:33.547Z,51.2908
2023-05-21T02:00:35.396Z,51.2883
2023-05-21T02:01:37.301Z,51.2906
2023-05-21T02:02:39.084Z,51.2891
2023-05-21T02:03:41.084Z,51.3065
2023-05-21T02:04:42.726Z,51.3195
2023-05-21T02:05:44.555Z,51.3094
2023-05-21T02:06:46.396Z,51.3170
2023-05-21T02:07:48.221Z,51.3099
2023-05-21T02:08:50.042Z,51.2937
2023-05-21T02:09:51.895Z,51.2877
2023-05-21T02:11:01.288Z,51.2953
2023-05-21T02:11:55.555Z,51.3214
2023-05-21T02:12:57.408Z,51.3209
2023-05-21T02:13:59.228Z,51.3148
2023-05-21T02:15:01.086Z,51.3081
2023-05-21T02:16:02.934Z,51.3190
2023-05-21T02:17:04.781Z,51.3441
2023-05-21T02:18:06.623Z,51.3596
2023-05-21T02:19:08.451Z,51.3837
2023-05-21T02:20:10.276Z,51.3837
2023-05-21T02:21:12.089Z,51.3901
2023-05-21T02:22:13.969Z,51.4012
2023-05-21T02:23:15.790Z,51.4133
2023-05-21T02:24:17.608Z,51.4310
2023-05-21T02:25:19.462Z,51.4404
2023-05-21T02:26:21.257Z,51.4236
2023-05-21T02:27:23.108Z,51.4149
2023-05-21T02:28:24.973Z,51.4268
2023-05-21T02:29:26.812Z,51.4300
2023-05-21T02:30:28.688Z,51.4364
2023-05-21T02:31:30.428Z,51.4318
2023-05-21T02:32:32.343Z,51.4317
2023-05-21T02:33:34.169Z,51.4290
2023-05-21T02:34:35.942Z,51.4194
2023-05-21T02:35:37.990Z,51.4148
2023-05-21T02:36:39.635Z,51.4196
2023-05-21T02:37:41.454Z,51.4060
2023-05-21T02:38:43.293Z,51.3928
2023-05-21T02:39:45.115Z,51.3896
2023-05-21T02:40:54.434Z,51.3873
2023-05-21T02:41:48.774Z,51.4086
2023-05-21T02:42:50.599Z,51.4086
2023-05-21T02:43:52.470Z,51.3884
2023-05-21T02:44:54.279Z,51.3936
2023-05-21T02:45:56.146Z,51.3873
2023-05-21T02:46:57.927Z,51.3914
2023-05-21T02:47:59.863Z,51.3804
2023-05-21T02:49:01.609Z,51.3890
2023-05-21T02:50:03.442Z,51.4052
2023-05-21T02:51:05.259Z,51.4055
2023-05-21T02:52:07.145Z,51.4099
2023-05-21T02:53:08.936Z,51.4140
2023-05-21T02:54:10.756Z,51.3955
2023-05-21T02:55:12.624Z,51.3621
2023-05-21T02:56:14.452Z,51.3277
2023-05-21T02:57:16.323Z,51.3029
2023-05-21T02:58:18.091Z,51.2771
2023-05-21T02:59:19.954Z,51.2581
2023-05-21T03:00:21.762Z,51.2629
2023-05-21T03:01:23.714Z,51.2489
2023-05-21T03:02:25.558Z,51.2251
2023-05-21T03:03:27.460Z,51.2231
2023-05-21T03:04:29.113Z,51.2169
2023-05-21T03:05:30.938Z,51.1952
2023-05-21T03:06:32.775Z,51.1755
2023-05-21T03:07:34.635Z,51.1757
2023-05-21T03:08:36.477Z,51.1727
2023-05-21T03:09:38.289Z,51.1688
2023-05-21T03:10:40.126Z,51.1831
2023-05-21T03:11:41.989Z,51.1657
2023-05-21T03:12:43.776Z,51.1502
2023-05-21T03:13:45.653Z,51.1066
2023-05-21T03:14:47.464Z,51.0455
2023-05-21T03:15:49.290Z,51.0117
2023-05-21T03:16:51.152Z,50.9923
2023-05-21T03:17:53.004Z,50.9751
2023-05-21T03:18:54.825Z,50.9650
2023-05-21T03:19:56.653Z,50.9620
2023-05-21T03:20:58.474Z,50.9456
2023-05-21T03:22:00.298Z,50.9199
2023-05-21T03:23:02.138Z,50.9083
2023-05-21T03:24:03.972Z,50.8968
2023-05-21T03:25:05.798Z,50.8913
2023-05-21T03:26:07.626Z,50.8809
2023-05-21T03:27:09.472Z,50.8603
2023-05-21T03:28:11.302Z,50.8387
2023-05-21T03:29:13.203Z,50.8322
2023-05-21T03:30:15.056Z,50.8261
2023-05-21T03:31:16.885Z,50.8445
2023-05-21T03:32:18.771Z,50.8482
2023-05-21T03:33:20.546Z,50.8387
2023-05-21T03:34:22.371Z,50.8249
2023-05-21T03:35:24.201Z,50.8182
2023-05-21T03:36:26.047Z,50.8084
2023-05-21T03:37:27.883Z,50.7759
2023-05-21T03:38:29.708Z,50.7461
2023-05-21T03:39:31.541Z,50.7262
2023-05-21T03:40:33.378Z,50.7139
2023-05-21T03:41:35.227Z,50.7067
2023-05-21T03:42:37.061Z,50.7085
2023-05-21T03:43:46.413Z,50.7095
2023-05-21T03:44:40.746Z,50.7021
2023-05-21T03:45:44.272Z,50.7095
2023-05-21T03:46:44.414Z,50.7162
2023-05-21T03:47:46.266Z,50.7171
2023-05-21T03:48:48.066Z,50.7248
2023-05-21T03:49:49.917Z,50.7150
2023-05-21T03:50:51.788Z,50.7128
2023-05-21T03:51:53.576Z,50.7036
2023-05-21T03:52:55.407Z,50.6980
2023-05-21T03:53:57.256Z,50.7034
2023-05-21T03:54:59.096Z,50.7204
2023-05-21T03:56:00.931Z,50.7374
2023-05-21T03:57:02.800Z,50.7509
2023-05-21T03:58:04.611Z,50.7509
2023-05-21T03:59:06.437Z,50.7473
2023-05-21T04:00:08.295Z,50.7640
2023-05-21T04:01:10.119Z,50.7572
2023-05-21T04:02:11.977Z,50.7545
2023-05-21T04:03:13.846Z,50.7588
2023-05-21T04:04:15.730Z,50.7570
2023-05-21T04:05:17.461Z,50.7647
2023-05-21T04:06:19.314Z,50.8073
2023-05-21T04:07:21.128Z,50.8333
2023-05-21T04:08:23.002Z,50.8457
2023-05-21T04:09:24.825Z,50.8453
2023-05-21T04:10:26.640Z,50.8519
2023-05-21T04:11:28.487Z,50.8425
2023-05-21T04:12:30.306Z,50.8463
2023-05-21T04:13:32.146Z,50.8493
2023-05-21T04:14:34.015Z,50.8486
2023-05-21T04:15:36.132Z,50.8668
2023-05-21T04:16:37.917Z,50.8691
2023-05-21T04:17:39.556Z,50.8648
2023-05-21T04:18:42.450Z,50.8933
2023-05-21T04:19:43.163Z,50.9122
2023-05-21T04:20:44.999Z,50.9206
2023-05-21T04:21:46.829Z,50.9017
2023-05-21T04:22:48.669Z,50.8857
2023-05-21T04:23:50.489Z,50.8724
2023-05-21T04:24:52.337Z,50.8391
2023-05-21T04:25:54.174Z,50.8282
2023-05-21T04:26:56.009Z,50.8088
2023-05-21T04:27:57.858Z,50.7956
2023-05-21T04:28:59.682Z,50.7914
2023-05-21T04:30:01.511Z,50.7832
2023-05-21T04:31:03.388Z,50.7660
2023-05-21T04:32:05.186Z,50.7571
2023-05-21T04:33:07.043Z,50.7683
2023-05-21T04:34:08.842Z,50.7718
2023-05-21T04:35:10.664Z,50.7739
2023-05-21T04:36:12.512Z,50.7667
2023-05-21T04:37:14.316Z,50.7593
2023-05-21T04:38:16.150Z,50.7671
2023-05-21T04:39:17.986Z,50.7731
2023-05-21T04:40:19.821Z,50.7814
2023-05-21T04:41:21.649Z,50.7779
2023-05-21T04:42:23.471Z,50.7855
2023-05-21T04:43:25.330Z,50.7859
2023-05-21T04:44:27.179Z,50.8056
2023-05-21T04:45:28.985Z,50.8196
2023-05-21T04:46:40.295Z,50.8210
2023-05-21T04:47:31.340Z,50.8370
2023-05-21T04:48:32.897Z,50.8460
2023-05-21T04:49:34.488Z,50.8630
2023-05-21T04:50:36.018Z,50.8748
2023-05-21T04:51:37.562Z,50.8794
2023-05-21T04:52:39.160Z,50.8793
2023-05-21T04:53:40.685Z,50.8787
2023-05-21T04:54:42.238Z,50.8862
2023-05-21T04:55:43.793Z,50.8921
2023-05-21T04:56:45.365Z,50.9074
2023-05-21T04:57:46.924Z,50.9267
2023-05-21T04:58:48.487Z,50.9277
2023-05-21T04:59:50.055Z,50.9281
2023-05-21T05:00:51.859Z,50.9350
2023-05-21T05:01:53.568Z,50.9257
2023-05-21T05:02:55.489Z,50.9112
2023-05-21T05:03:57.412Z,50.8898
2023-05-21T05:04:59.105Z,50.8653
2023-05-21T05:06:00.929Z,50.8360
2023-05-21T05:07:02.765Z,50.8320
2023-05-21T05:08:04.576Z,50.8250
2023-05-21T05:09:06.419Z,50.8124
2023-05-21T05:10:08.260Z,50.7988
2023-05-21T05:11:10.075Z,50.7884
2023-05-21T05:12:11.907Z,50.7825
2023-05-21T05:13:13.776Z,50.7771
2023-05-21T05:14:15.568Z,50.7486
2023-05-21T05:15:17.445Z,50.7277
2023-05-21T05:16:19.292Z,50.7115
2023-05-21T05:17:21.084Z,50.7055
2023-05-21T05:18:22.952Z,50.7084
2023-05-21T05:19:24.819Z,50.7135
2023-05-21T05:20:26.605Z,50.7049
2023-05-21T05:21:28.432Z,50.7046
2023-05-21T05:22:30.254Z,50.7003
2023-05-21T05:23:32.102Z,50.6902
2023-05-21T05:24:33.948Z,50.6820
2023-05-21T05:25:35.983Z,50.6803
2023-05-21T05:26:37.625Z,50.6886
2023-05-21T05:27:39.442Z,50.6902
2023-05-21T05:28:41.259Z,50.6881
2023-05-21T05:29:43.091Z,50.6964
2023-05-21T05:30:44.989Z,50.7004
2023-05-21T05:31:46.769Z,50.7067
2023-05-21T05:32:48.632Z,50.7075
2023-05-21T05:33:50.421Z,50.6986
2023-05-21T05:34:52.277Z,50.6945
2023-05-21T05:35:54.099Z,50.7034
2023-05-21T05:36:55.933Z,50.7029
2023-05-21T05:37:57.749Z,50.7128
2023-05-21T05:38:59.585Z,50.7176
2023-05-21T05:40:01.416Z,50.7254
2023-05-21T05:41:11.347Z,50.7046
2023-05-21T05:42:05.101Z,50.7079
2023-05-21T05:43:06.941Z,50.6903
2023-05-21T05:44:10.820Z,50.7009
2023-05-21T05:45:10.580Z,50.7165
2023-05-21T05:46:12.484Z,50.7281
2023-05-21T05:47:14.277Z,50.7465
2023-05-21T05:48:16.094Z,50.7263
2023-05-21T05:49:25.441Z,50.7364
2023-05-21T05:50:19.743Z,50.7604
2023-05-21T05:51:21.647Z,50.7648
2023-05-21T05:52:23.430Z,50.7762
2023-05-21T05:53:25.265Z,50.7797
2023-05-21T05:54:27.096Z,50.7882
2023-05-21T05:55:28.921Z,50.7885
2023-05-21T05:56:30.774Z,50.7827
2023-05-21T05:57:32.579Z,50.7829
2023-05-21T05:58:34.432Z,50.7958
2023-05-21T05:59:36.254Z,50.8031
2023-05-21T06:00:38.114Z,50.8169
2023-05-21T06:01:39.961Z,50.8316
2023-05-21T06:02:41.792Z,50.8400
2023-05-21T06:03:43.731Z,50.8405
2023-05-21T06:04:45.450Z,50.8391
2023-05-21T06:05:47.319Z,50.8518
2023-05-21T06:06:49.122Z,50.8471
2023-05-21T06:07:50.964Z,50.8586
2023-05-21T06:08:52.785Z,50.8737
2023-05-21T06:09:54.599Z,50.8786
2023-05-21T06:10:56.449Z,50.8846
2023-05-21T06:11:58.269Z,50.8875
2023-05-21T06:13:00.135Z,50.9037
2023-05-21T06:14:01.929Z,50.9270
2023-05-21T06:15:03.762Z,50.9470
2023-05-21T06:16:05.629Z,50.9555
2023-05-21T06:17:07.452Z,50.9626
2023-05-21T06:18:09.324Z,50.9716
2023-05-21T06:19:11.185Z,50.9750
2023-05-21T06:20:12.933Z,50.9755
2023-05-21T06:21:14.779Z,50.9786
2023-05-21T06:22:16.591Z,50.9698
2023-05-21T06:23:18.438Z,50.9703
2023-05-21T06:24:20.272Z,50.9902
2023-05-21T06:25:22.139Z,51.0080
2023-05-21T06:26:23.953Z,51.0240
2023-05-21T06:27:25.858Z,51.0394
2023-05-21T06:28:27.586Z,51.0456
2023-05-21T06:29:29.447Z,51.0497
2023-05-21T06:30:31.273Z,51.0636
2023-05-21T06:31:33.175Z,51.0803
2023-05-21T06:32:34.975Z,51.0994
2023-05-21T06:33:36.880Z,51.1133
2023-05-21T06:34:38.615Z,51.1704
2023-05-21T06:35:40.456Z,51.1985
2023-05-21T06:36:42.265Z,51.2232
2023-05-21T06:37:44.100Z,51.2520
2023-05-21T06:38:45.936Z,51.2848
2023-05-21T06:39:47.780Z,51.3026
2023-05-21T06:40:49.605Z,51.3358
2023-05-21T06:41:51.451Z,51.3681
2023-05-21T06:42:53.278Z,51.3954
2023-05-21T06:43:55.094Z,51.4207
2023-05-21T06:44:56.946Z,51.4582
2023-05-21T06:45:58.811Z,51.4912
2023-05-21T06:47:00.607Z,51.5212
2023-05-21T06:48:02.503Z,51.5293
2023-05-21T06:49:04.274Z,51.5736
2023-05-21T06:50:06.094Z,51.6192
2023-05-21T06:51:07.946Z,51.6213
2023-05-21T06:52:17.298Z,51.6471
2023-05-21T06:53:11.624Z,51.6622
2023-05-21T06:54:13.440Z,51.6762
2023-05-21T06:55:15.276Z,51.6736
2023-05-21T06:56:17.135Z,51.6990
2023-05-21T06:57:18.950Z,51.7168
2023-05-21T06:58:20.798Z,51.7342
2023-05-21T06:59:22.654Z,51.7621
2023-05-21T07:00:24.448Z,51.7643
2023-05-21T07:01:26.334Z,51.7881
2023-05-21T07:02:28.186Z,51.7953
2023-05-21T07:03:30.072Z,51.7881
2023-05-21T07:04:31.794Z,51.7589
2023-05-21T07:05:33.631Z,51.7666
2023-05-21T07:06:35.460Z,51.8019
2023-05-21T07:07:37.275Z,51.8140
2023-05-21T07:08:39.138Z,51.8058
2023-05-21T07:09:40.943Z,51.8041
2023-05-21T07:10:42.804Z,51.8097
2023-05-21T07:11:44.627Z,51.8111
2023-05-21T07:12:46.480Z,51.8079
2023-05-21T07:13:48.286Z,51.8048
2023-05-21T07:14:50.114Z,51.8058
2023-05-21T07:15:51.964Z,51.7944
2023-05-21T07:16:53.849Z,51.7838
2023-05-21T07:17:55.628Z,51.7826
2023-05-21T07:18:57.514Z,51.8000
2023-05-21T07:19:59.269Z,51.8161
2023-05-21T07:21:01.107Z,51.8280
2023-05-21T07:22:02.966Z,51.8452
2023-05-21T07:23:04.785Z,51.8296
2023-05-21T07:24:06.629Z,51.8186
2023-05-21T07:25:08.441Z,51.8173
2023-05-21T07:26:10.287Z,51.8159
2023-05-21T07:27:24.855Z,51.8338
2023-05-21T07:28:14.943Z,51.8697
2023-05-21T07:29:15.789Z,51.8740
2023-05-21T07:30:17.618Z,51.8542
2023-05-21T07:31:19.477Z,51.8459
2023-05-21T07:32:21.389Z,51.8615
2023-05-21T07:33:23.167Z,51.8614
2023-05-21T07:34:25.038Z,51.8583
2023-05-21T07:35:26.812Z,51.8714
2023-05-21T07:36:28.641Z,51.8885
2023-05-21T07:37:30.547Z,51.8844
2023-05-21T07:38:32.300Z,51.8787
2023-05-21T07:39:34.160Z,51.8991
2023-05-21T07:40:35.995Z,51.9062
2023-05-21T07:41:37.827Z,51.9219
2023-05-21T07:42:39.654Z,51.9410
2023-05-21T07:43:41.489Z,51.9602
2023-05-21T07:44:43.514Z,51.9687
2023-05-21T07:45:45.172Z,51.9979
2023-05-21T07:46:47.058Z,52.0255
2023-05-21T07:47:48.874Z,52.0393
2023-05-21T07:48:50.675Z,52.0331
2023-05-21T07:49:52.489Z,52.0523
2023-05-21T07:50:54.312Z,52.0852
2023-05-21T07:51:56.171Z,52.0855
2023-05-21T07:52:58.040Z,52.0752
2023-05-21T07:54:07.327Z,52.0928
2023-05-21T07:55:01.688Z,52.0977
2023-05-21T07:56:03.492Z,52.0965
2023-05-21T07:57:05.366Z,52.1102
2023-05-21T07:58:07.175Z,52.1162
2023-05-21T07:59:08.988Z,52.1149
2023-05-21T08:00:10.850Z,52.1155
2023-05-21T08:01:12.648Z,52.1264
2023-05-21T08:02:14.487Z,52.1297
2023-05-21T08:03:16.570Z,52.1582
2023-05-21T08:04:18.226Z,52.1917
2023-05-21T08:05:19.984Z,52.2507
2023-05-21T08:06:21.805Z,52.2612
2023-05-21T08:07:23.651Z,52.2795
2023-05-21T08:08:25.474Z,52.2667
2023-05-21T08:09:27.321Z,52.2918
2023-05-21T08:10:29.157Z,52.3010
2023-05-21T08:11:30.969Z,52.3282
2023-05-21T08:12:32.815Z,52.3655
2023-05-21T08:13:34.622Z,52.3713
2023-05-21T08:14:36.471Z,52.4007
2023-05-21T08:15:38.514Z,52.4034
2023-05-21T08:16:40.284Z,52.3744
2023-05-21T08:17:42.043Z,52.3392
2023-05-21T08:18:43.842Z,52.3171
2023-05-21T08:19:45.665Z,52.3077
2023-05-21T08:20:47.504Z,52.3524
2023-05-21T08:21:51.343Z,52.3987
2023-05-21T08:22:51.162Z,52.4450
2023-05-21T08:23:53.006Z,52.4539
2023-05-21T08:24:54.811Z,52.4587
2023-05-21T08:25:56.670Z,52.4741
2023-05-21T08:26:58.513Z,52.5191
2023-05-21T08:28:00.311Z,52.5764
2023-05-21T08:29:02.163Z,52.6570
2023-05-21T08:30:03.984Z,52.7177
2023-05-21T08:31:05.822Z,52.7419
2023-05-21T08:32:07.788Z,52.7884
2023-05-21T08:33:09.527Z,52.8450
2023-05-21T08:34:11.321Z,52.8963
2023-05-21T08:35:13.182Z,52.9260
2023-05-21T08:36:15.141Z,52.9280
2023-05-21T08:37:16.805Z,52.9283
2023-05-21T08:38:18.653Z,52.9284
2023-05-21T08:39:20.490Z,52.9377
2023-05-21T08:40:22.325Z,52.9047
2023-05-21T08:41:24.160Z,52.8712
2023-05-21T08:42:36.385Z,52.9013
2023-05-21T08:43:30.953Z,52.9490
2023-05-21T08:44:31.480Z,52.9717
2023-05-21T08:45:33.048Z,52.9938
2023-05-21T08:46:34.649Z,53.0271
2023-05-21T08:47:36.251Z,53.0605
2023-05-21T08:48:37.695Z,53.0647
2023-05-21T08:49:46.754Z,53.0685
2023-05-21T08:50:40.824Z,53.1215
2023-05-21T08:51:42.488Z,53.1220
2023-05-21T08:52:44.326Z,53.1144
2023-05-21T08:53:46.130Z,53.1181
2023-05-21T08:54:47.949Z,53.1154
2023-05-21T08:55:51.697Z,53.1684
2023-05-21T08:56:59.427Z,53.1920
2023-05-21T08:57:53.454Z,53.2602
2023-05-21T08:58:55.367Z,53.2991
2023-05-21T08:59:57.126Z,53.3074
2023-05-21T09:00:59.008Z,53.3122
2023-05-21T09:02:00.858Z,53.2974
2023-05-21T09:03:02.672Z,53.2935
2023-05-21T09:04:18.957Z,53.2789
2023-05-21T09:05:08.338Z,53.2883
2023-05-21T09:06:08.892Z,53.2929
2023-05-21T09:07:10.502Z,53.2971
2023-05-21T09:08:12.019Z,53.3218
2023-05-21T09:09:13.645Z,53.3506
2023-05-21T09:10:15.480Z,53.4119
2023-05-21T09:11:17.309Z,53.4576
2023-05-21T09:12:19.166Z,53.4928
2023-05-21T09:13:20.995Z,53.5142
2023-05-21T09:14:22.848Z,53.5173
2023-05-21T09:15:24.659Z,53.5203
2023-05-21T09:16:26.498Z,53.4927
2023-05-21T09:17:28.333Z,53.4643
2023-05-21T09:18:30.134Z,53.4337
2023-05-21T09:19:32.044Z,53.3611
2023-05-21T09:20:33.842Z,53.3058
2023-05-21T09:21:35.646Z,53.2705
2023-05-21T09:22:37.489Z,53.2520
2023-05-21T09:23:39.313Z,53.2605
2023-05-21T09:24:41.158Z,53.2918
2023-05-21T09:25:42.973Z,53.3125
2023-05-21T09:26:44.815Z,53.3132
2023-05-21T09:27:46.660Z,53.3146
2023-05-21T09:28:48.497Z,53.2966
2023-05-21T09:29:50.335Z,53.3092
2023-05-21T09:30:52.158Z,53.3167
2023-05-21T09:31:54.105Z,53.2933
2023-05-21T09:32:55.914Z,53.2718
2023-05-21T09:33:57.668Z,53.2397
2023-05-21T09:34:59.496Z,53.2402
2023-05-21T09:36:01.323Z,53.2500
2023-05-21T09:37:04.990Z,53.2658
2023-05-21T09:38:05.015Z,53.2853
2023-05-21T09:39:06.832Z,53.2401
2023-05-21T09:40:08.660Z,53.1733
2023-05-21T09:41:10.500Z,53.1081
2023-05-21T09:42:12.338Z,53.1060
2023-05-21T09:43:14.184Z,53.0922
2023-05-21T09:44:16.023Z,53.0752
2023-05-21T09:45:17.876Z,53.0460
2023-05-21T09:46:19.718Z,53.0374
2023-05-21T09:47:21.578Z,53.0202
2023-05-21T09:48:23.359Z,52.9828
2023-05-21T09:49:25.246Z,52.9582
2023-05-21T09:50:27.016Z,52.9292
2023-05-21T09:51:28.872Z,52.8940
2023-05-21T09:52:30.718Z,52.8919
2023-05-21T09:53:32.546Z,52.9210
2023-05-21T09:54:34.379Z,52.9514
2023-05-21T09:55:36.213Z,52.9757
2023-05-21T09:56:38.056Z,52.9553
2023-05-21T09:57:39.870Z,52.9634
2023-05-21T09:58:41.732Z,52.9831
2023-05-21T09:59:51.084Z,52.9954
2023-05-21T10:00:45.637Z,53.0809
2023-05-21T10:01:47.294Z,53.1421
2023-05-21T10:02:49.125Z,53.2143
2023-05-21T10:03:50.934Z,53.2450
2023-05-21T10:04:52.764Z,53.2334
2023-05-21T10:05:54.588Z,53.2193
2023-05-21T10:06:56.403Z,53.2412
2023-05-21T10:07:58.246Z,53.2435
2023-05-21T10:09:00.842Z,53.2587
2023-05-21T10:10:01.935Z,53.2749
2023-05-21T10:11:03.758Z,53.2818
2023-05-21T10:12:05.596Z,53.2695
2023-05-21T10:13:07.441Z,53.2919
2023-05-21T10:14:09.299Z,53.3773
2023-05-21T10:15:11.106Z,53.4323
2023-05-21T10:16:12.978Z,53.4111
2023-05-21T10:17:14.761Z,53.3954
2023-05-21T10:18:16.619Z,53.3913
2023-05-21T10:19:18.495Z,53.4395
2023-05-21T10:20:20.270Z,53.5069
2023-05-21T10:21:22.090Z,53.5270
2023-05-21T10:22:23.934Z,53.5338
2023-05-21T10:23:25.772Z,53.5378
2023-05-21T10:24:27.619Z,53.4892
2023-05-21T10:25:29.421Z,53.4683
2023-05-21T10:26:31.259Z,53.4917
2023-05-21T10:27:33.148Z,53.5570
2023-05-21T10:28:34.946Z,53.5494
2023-05-21T10:29:36.797Z,53.5796
2023-05-21T10:30:38.862Z,53.5392
2023-05-21T10:31:40.451Z,53.5808
2023-05-21T10:32:42.358Z,53.5533
2023-05-21T10:33:44.129Z,53.5464
2023-05-21T10:34:45.976Z,53.5344
2023-05-21T10:35:47.799Z,53.6089
2023-05-21T10:36:49.607Z,53.6211
2023-05-21T10:37:51.443Z,53.6105
2023-05-21T10:38:53.334Z,53.6209
2023-05-21T10:39:55.141Z,53.5728
2023-05-21T10:40:56.955Z,53.5013
2023-05-21T10:41:59.309Z,53.4780
2023-05-21T10:43:00.622Z,53.4528
2023-05-21T10:44:02.448Z,53.3927
2023-05-21T10:45:04.355Z,53.3208
2023-05-21T10:46:06.200Z,53.3129
2023-05-21T10:47:07.972Z,53.3100
2023-05-21T10:48:09.832Z,53.3132
2023-05-21T10:49:11.637Z,53.2893
2023-05-21T10:50:13.473Z,53.3042
2023-05-21T10:51:15.288Z,53.3198
2023-05-21T10:52:17.122Z,53.3565
2023-05-21T10:53:18.975Z,53.3764
2023-05-21T10:54:20.805Z,53.3776
2023-05-21T10:55:22.693Z,53.4005
2023-05-21T10:56:24.461Z,53.4042
2023-05-21T10:57:26.319Z,53.3778
2023-05-21T10:58:30.048Z,53.3584
2023-05-21T10:59:29.982Z,53.3737
2023-05-21T11:00:31.833Z,53.3413
2023-05-21T11:01:33.686Z,53.2936
2023-05-21T11:02:43.124Z,53.2475
2023-05-21T11:03:38.092Z,53.1786
2023-05-21T11:04:39.143Z,53.1325
2023-05-21T11:05:40.988Z,53.1279
2023-05-21T11:06:42.810Z,53.1395
2023-05-21T11:07:44.661Z,53.1199
2023-05-21T11:08:46.480Z,53.1212
2023-05-21T11:09:48.326Z,53.1323
2023-05-21T11:10:50.159Z,53.1699
2023-05-21T11:11:51.988Z,53.2197
2023-05-21T11:12:53.804Z,53.3125
2023-05-21T11:13:55.656Z,53.2997
2023-05-21T11:14:57.487Z,53.2765
2023-05-21T11:15:59.409Z,53.2715
2023-05-21T11:17:01.219Z,53.2046
2023-05-21T11:18:03.029Z,53.1081
2023-05-21T11:19:04.854Z,53.0251
2023-05-21T11:20:06.628Z,52.9587
2023-05-21T11:21:08.473Z,52.9025
2023-05-21T11:22:10.322Z,52.9289
2023-05-21T11:23:12.130Z,52.9501
2023-05-21T11:24:13.974Z,52.9376
2023-05-21T11:25:15.797Z,52.9462
2023-05-21T11:26:17.635Z,52.9540
2023-05-21T11:27:19.491Z,52.9854
2023-05-21T11:28:21.291Z,53.0135
2023-05-21T11:29:23.128Z,52.9902
2023-05-21T11:30:24.959Z,52.9938
2023-05-21T11:31:26.939Z,53.0057
2023-05-21T11:32:28.746Z,53.0005
2023-05-21T11:33:30.465Z,52.9174
2023-05-21T11:34:32.291Z,52.8147
2023-05-21T11:35:34.138Z,52.7354
2023-05-21T11:36:36.230Z,52.6440
2023-05-21T11:37:37.887Z,52.5524
2023-05-21T11:38:39.760Z,52.4635
2023-05-21T11:39:41.550Z,52.3344
2023-05-21T11:40:43.372Z,52.1847
2023-05-21T11:41:45.259Z,52.0638
2023-05-21T11:42:47.069Z,52.0026
2023-05-21T11:43:48.916Z,51.9832
2023-05-21T11:44:50.736Z,51.9945
2023-05-21T11:45:52.564Z,51.9895
2023-05-21T11:46:54.427Z,52.0081
2023-05-21T11:47:56.336Z,52.1216
2023-05-21T11:48:58.101Z,52.1693
2023-05-21T11:49:59.926Z,52.1754
2023-05-21T11:51:01.735Z,52.1433
2023-05-21T11:52:03.632Z,52.1001
2023-05-21T11:53:05.409Z,52.0701
2023-05-21T11:54:07.240Z,52.0331
2023-05-21T11:55:16.600Z,51.9265
2023-05-21T11:56:10.918Z,51.8769
2023-05-21T11:57:12.759Z,51.8260
2023-05-21T11:58:14.581Z,51.7600
2023-05-21T11:59:18.705Z,51.6535
2023-05-21T12:00:18.275Z,51.5606
2023-05-21T12:01:20.098Z,51.5030
2023-05-21T12:02:21.976Z,51.3889
2023-05-21T12:03:23.859Z,51.1752
2023-05-21T12:04:25.595Z,50.9820
2023-05-21T12:05:27.453Z,50.8398
2023-05-21T12:06:29.374Z,50.6863
2023-05-21T12:07:31.253Z,50.5019
2023-05-21T12:08:32.919Z,50.4319
2023-05-21T12:09:34.796Z,50.3957
2023-05-21T12:10:36.747Z,50.4193
2023-05-21T12:11:38.416Z,50.4040
2023-05-21T12:12:53.229Z,50.4075
2023-05-21T12:13:45.305Z,50.4420
2023-05-21T12:14:45.813Z,50.4552
2023-05-21T12:15:47.366Z,50.4432
2023-05-21T12:16:48.947Z,50.4085
2023-05-21T12:17:50.534Z,50.4305
2023-05-21T12:18:52.075Z,50.4663
2023-05-21T12:19:53.626Z,50.4492
2023-05-21T12:20:55.147Z,50.4313
2023-05-21T12:21:56.756Z,50.4164
2023-05-21T12:22:58.636Z,50.3956
2023-05-21T12:24:00.441Z,50.3769
2023-05-21T12:25:02.276Z,50.3575
2023-05-21T12:26:04.118Z,50.3224
2023-05-21T12:27:05.929Z,50.2928